createdAt,value
2022-07-29T00:01:39.084Z,30.27
2022-07-29T00:04:29.686Z,30.16
2022-07-29T00:07:20.780Z,30.06
2022-07-29T00:10:11.685Z,29.96
2022-07-29T00:13:02.506Z,29.88
2022-07-29T00:15:53.095Z,29.81
2022-07-29T00:18:43.840Z,29.75
2022-07-29T00:21:35.062Z,29.71
2022-07-29T00:24:27.959Z,29.67
2022-07-29T00:27:18.209Z,29.63
2022-07-29T00:30:10.183Z,29.58
2022-07-29T00:33:01.497Z,29.54
2022-07-29T00:35:51.583Z,29.50
2022-07-29T00:38:46.290Z,29.47
2022-07-29T00:41:36.946Z,29.44
2022-07-29T00:44:27.068Z,29.45
2022-07-29T00:47:17.780Z,29.47
2022-07-29T00:50:10.693Z,29.54
2022-07-29T00:53:01.219Z,29.58
2022-07-29T00:55:52.455Z,29.64
2022-07-29T00:58:46.519Z,29.69
2022-07-29T01:01:37.026Z,29.76
2022-07-29T01:04:28.244Z,29.81
2022-07-29T01:07:19.865Z,29.82
2022-07-29T01:10:12.546Z,29.82
2022-07-29T01:13:03.828Z,29.80
2022-07-29T01:16:04.107Z,29.73
2022-07-29T01:18:59.609Z,29.68
2022-07-29T01:21:57.837Z,29.66
2022-07-29T01:25:05.425Z,29.61
2022-07-29T01:28:23.676Z,29.58
2022-07-29T01:31:25.333Z,29.53
2022-07-29T01:34:26.304Z,29.48
2022-07-29T01:37:22.272Z,29.44
2022-07-29T01:40:22.252Z,29.42
2022-07-29T01:43:16.923Z,29.40
2022-07-29T01:46:12.142Z,29.38
2022-07-29T01:49:11.553Z,29.38
2022-07-29T01:52:06.375Z,29.38
2022-07-29T01:55:01.114Z,29.38
2022-07-29T01:57:52.391Z,29.39
2022-07-29T02:00:44.545Z,29.38
2022-07-29T02:03:40.246Z,29.36
2022-07-29T02:06:33.308Z,29.31
2022-07-29T02:09:24.707Z,29.27
2022-07-29T02:12:17.343Z,29.22
2022-07-29T02:15:10.885Z,29.18
2022-07-29T02:18:08.319Z,29.14
2022-07-29T02:21:01.796Z,29.10
2022-07-29T02:23:53.992Z,29.07
2022-07-29T02:26:46.789Z,29.04
2022-07-29T02:29:38.210Z,29.05
2022-07-29T02:32:30.592Z,29.04
2022-07-29T02:35:22.527Z,29.02
2022-07-29T02:38:32.238Z,29.00
2022-07-29T02:41:26.367Z,28.96
2022-07-29T02:44:19.287Z,28.95
2022-07-29T02:47:18.710Z,28.92
2022-07-29T02:50:14.313Z,28.89
2022-07-29T02:53:10.071Z,28.87
2022-07-29T02:56:03.904Z,28.85
2022-07-29T02:58:59.263Z,28.83
2022-07-29T03:01:50.779Z,28.82
2022-07-29T03:04:45.592Z,28.82
2022-07-29T03:07:38.560Z,28.81
2022-07-29T03:10:30.480Z,28.80
2022-07-29T03:13:21.214Z,28.80
2022-07-29T03:16:14.024Z,28.79
2022-07-29T03:19:05.361Z,28.78
2022-07-29T03:21:58.173Z,28.76
2022-07-29T03:24:48.478Z,28.74
2022-07-29T03:27:39.244Z,28.73
2022-07-29T03:30:31.729Z,28.72
2022-07-29T03:33:22.554Z,28.71
2022-07-29T03:36:12.856Z,28.70
2022-07-29T03:39:04.315Z,28.68
2022-07-29T03:41:58.873Z,28.65
2022-07-29T03:44:53.101Z,28.64
2022-07-29T03:47:51.089Z,28.62
2022-07-29T03:50:42.437Z,28.61
2022-07-29T03:53:33.387Z,28.59
2022-07-29T03:56:26.056Z,28.58
2022-07-29T03:59:20.748Z,28.58
2022-07-29T04:02:14.926Z,28.58
2022-07-29T04:05:14.032Z,28.57
2022-07-29T04:08:04.437Z,28.56
2022-07-29T04:10:54.989Z,28.55
2022-07-29T04:13:45.400Z,28.54
2022-07-29T04:16:35.581Z,28.54
2022-07-29T04:19:25.555Z,28.53
2022-07-29T04:22:15.502Z,28.54
2022-07-29T04:25:06.355Z,28.53
2022-07-29T04:28:02.579Z,28.53
2022-07-29T04:30:55.877Z,28.51
2022-07-29T04:33:47.558Z,28.50
2022-07-29T04:36:38.560Z,28.50
2022-07-29T04:39:30.477Z,28.49
2022-07-29T04:42:27.804Z,28.48
2022-07-29T04:45:22.322Z,28.48
2022-07-29T04:48:13.669Z,28.48
2022-07-29T04:51:03.521Z,28.48
2022-07-29T04:53:54.245Z,28.52
2022-07-29T04:56:47.446Z,28.71
2022-07-29T04:59:38.018Z,28.86
2022-07-29T05:02:28.777Z,28.96
2022-07-29T05:05:19.288Z,29.06
2022-07-29T05:08:09.475Z,29.10
2022-07-29T05:11:11.468Z,29.14
2022-07-29T05:14:02.686Z,29.19
2022-07-29T05:16:54.289Z,29.19
2022-07-29T05:19:44.900Z,29.19
2022-07-29T05:22:35.258Z,29.16
2022-07-29T05:25:43.139Z,29.14
2022-07-29T05:28:37.316Z,29.12
2022-07-29T05:31:29.146Z,29.12
2022-07-29T05:34:19.990Z,29.13
2022-07-29T05:37:10.822Z,29.13
2022-07-29T05:40:01.186Z,29.14
2022-07-29T05:42:52.751Z,29.17
2022-07-29T05:45:49.298Z,29.21
2022-07-29T05:48:41.553Z,29.25
2022-07-29T05:51:32.344Z,29.29
2022-07-29T05:54:22.754Z,29.34
2022-07-29T05:57:17.141Z,29.37
2022-07-29T06:00:09.172Z,29.41
2022-07-29T06:03:04.887Z,29.47
2022-07-29T06:05:55.357Z,29.55
2022-07-29T06:08:45.833Z,29.60
2022-07-29T06:11:36.844Z,29.62
2022-07-29T06:14:27.619Z,29.63
2022-07-29T06:17:18.895Z,29.66
2022-07-29T06:20:10.897Z,29.68
2022-07-29T06:23:00.999Z,29.70
2022-07-29T06:25:51.285Z,29.73
2022-07-29T06:28:41.695Z,29.74
2022-07-29T06:31:32.723Z,29.71
2022-07-29T06:34:23.147Z,29.64
2022-07-29T06:37:15.423Z,29.64
2022-07-29T06:40:21.642Z,29.65
2022-07-29T06:43:12.520Z,29.68
2022-07-29T06:46:05.148Z,29.71
2022-07-29T06:48:56.227Z,29.72
2022-07-29T06:51:46.439Z,29.74
2022-07-29T06:54:37.263Z,29.77
2022-07-29T06:57:29.040Z,29.79
2022-07-29T07:00:21.246Z,29.78
2022-07-29T07:03:12.427Z,29.78
2022-07-29T07:06:02.462Z,29.76
2022-07-29T07:08:53.072Z,29.75
2022-07-29T07:11:43.668Z,29.75
2022-07-29T07:14:34.744Z,29.75
2022-07-29T07:17:25.383Z,29.73
2022-07-29T07:20:16.385Z,29.71
2022-07-29T07:23:07.554Z,29.71
2022-07-29T07:25:59.405Z,29.72
2022-07-29T07:28:49.795Z,29.73
2022-07-29T07:31:40.780Z,29.74
2022-07-29T07:34:31.719Z,29.78
2022-07-29T07:37:22.123Z,29.83
2022-07-29T07:40:18.688Z,29.88
2022-07-29T07:43:09.648Z,29.94
2022-07-29T07:46:02.834Z,29.99
2022-07-29T07:48:54.801Z,30.02
2022-07-29T07:51:50.311Z,30.05
2022-07-29T07:54:41.814Z,30.11
2022-07-29T07:57:32.644Z,30.19
2022-07-29T08:00:23.700Z,30.23
2022-07-29T08:03:17.018Z,30.20
2022-07-29T08:06:08.665Z,30.10
2022-07-29T08:09:19.542Z,30.08
2022-07-29T08:12:09.809Z,30.09
2022-07-29T08:15:02.517Z,30.13
2022-07-29T08:17:52.591Z,30.17
2022-07-29T08:20:43.021Z,30.16
2022-07-29T08:23:47.062Z,30.16
2022-07-29T08:26:40.450Z,30.17
2022-07-29T08:29:31.949Z,30.21
2022-07-29T08:32:50.910Z,30.27
2022-07-29T08:35:35.681Z,30.31
2022-07-29T08:38:28.482Z,30.33
2022-07-29T08:41:20.136Z,30.40
2022-07-29T08:44:11.038Z,30.45
2022-07-29T08:47:04.307Z,30.54
2022-07-29T08:49:54.703Z,30.62
2022-07-29T08:52:48.061Z,30.67
2022-07-29T08:55:41.334Z,30.73
2022-07-29T08:58:37.001Z,30.76
2022-07-29T09:01:35.740Z,30.75
2022-07-29T09:04:29.729Z,30.75
2022-07-29T09:07:20.889Z,30.81
2022-07-29T09:10:12.233Z,30.87
2022-07-29T09:13:02.214Z,30.93
2022-07-29T09:15:55.061Z,31.02
2022-07-29T09:18:47.154Z,31.08
2022-07-29T09:22:03.000Z,31.12
2022-07-29T09:24:56.492Z,31.17
2022-07-29T09:27:53.687Z,31.21
2022-07-29T09:30:54.916Z,31.25
2022-07-29T09:33:45.522Z,31.12
2022-07-29T09:36:43.396Z,31.01
2022-07-29T09:39:35.526Z,31.01
2022-07-29T09:42:34.983Z,31.01
2022-07-29T09:45:35.906Z,31.04
2022-07-29T09:48:27.142Z,31.15
2022-07-29T09:51:38.027Z,31.27
2022-07-29T09:54:29.843Z,31.39
2022-07-29T09:57:31.418Z,31.43
2022-07-29T10:00:26.328Z,31.54
2022-07-29T10:03:17.128Z,31.64
2022-07-29T10:06:12.467Z,31.66
2022-07-29T10:09:12.385Z,31.62
2022-07-29T10:12:15.633Z,31.56
2022-07-29T10:15:08.285Z,31.43
2022-07-29T10:18:00.106Z,31.19
2022-07-29T10:20:50.764Z,31.13
2022-07-29T10:23:46.261Z,31.16
2022-07-29T10:26:42.297Z,31.13
2022-07-29T10:29:33.965Z,31.15
2022-07-29T10:32:42.642Z,31.08
2022-07-29T10:35:44.495Z,30.96
2022-07-29T10:39:03.249Z,31.00
2022-07-29T10:42:09.177Z,31.06
2022-07-29T10:44:59.967Z,31.15
2022-07-29T10:47:50.612Z,31.28
2022-07-29T10:51:03.918Z,31.41
2022-07-29T10:53:55.400Z,31.46
2022-07-29T10:56:45.731Z,31.51
2022-07-29T10:59:38.829Z,31.57
2022-07-29T11:02:52.387Z,31.67
2022-07-29T11:06:00.173Z,31.82
2022-07-29T11:09:25.884Z,31.81
2022-07-29T11:12:50.834Z,31.78
2022-07-29T11:15:57.329Z,31.78
2022-07-29T11:19:26.637Z,31.85
2022-07-29T11:22:43.031Z,31.90
2022-07-29T11:25:50.989Z,31.95
2022-07-29T11:28:53.155Z,32.02
2022-07-29T11:31:47.775Z,32.09
2022-07-29T11:34:41.852Z,32.06
2022-07-29T11:37:33.679Z,31.93
2022-07-29T11:40:32.809Z,31.79
2022-07-29T11:43:50.857Z,31.66
2022-07-29T11:46:54.064Z,31.55
2022-07-29T11:49:49.931Z,31.43
2022-07-29T11:52:49.955Z,31.38
2022-07-29T11:55:50.772Z,31.36
2022-07-29T11:58:43.427Z,31.38
2022-07-29T12:01:34.448Z,31.38
2022-07-29T12:04:25.889Z,31.38
2022-07-29T12:07:17.292Z,31.41
2022-07-29T12:10:11.301Z,31.46
2022-07-29T12:13:06.392Z,31.58
2022-07-29T12:16:02.326Z,31.66
2022-07-29T12:19:02.329Z,31.65
2022-07-29T12:21:59.877Z,31.75
2022-07-29T12:24:54.553Z,31.65
2022-07-29T12:27:49.815Z,31.37
2022-07-29T12:30:45.960Z,31.06
2022-07-29T12:33:37.906Z,30.79
2022-07-29T12:36:27.796Z,30.57
2022-07-29T12:39:20.954Z,30.48
2022-07-29T12:42:18.354Z,30.40
2022-07-29T12:45:10.580Z,30.28
2022-07-29T12:48:01.083Z,30.15
2022-07-29T12:50:59.684Z,30.02
2022-07-29T12:54:08.063Z,29.89
2022-07-29T12:57:05.704Z,29.77
2022-07-29T13:00:15.038Z,29.66
2022-07-29T13:03:07.285Z,29.58
2022-07-29T13:05:59.706Z,29.55
2022-07-29T13:09:19.807Z,29.60
2022-07-29T13:12:12.725Z,29.63
2022-07-29T13:15:03.141Z,29.68
2022-07-29T13:17:54.149Z,29.71
2022-07-29T13:20:44.030Z,29.73
2022-07-29T13:23:38.355Z,29.69
2022-07-29T13:26:28.994Z,29.63
2022-07-29T13:29:18.864Z,29.59
2022-07-29T13:32:09.508Z,29.62
2022-07-29T13:35:05.485Z,29.65
2022-07-29T13:37:55.803Z,29.66
2022-07-29T13:40:47.183Z,29.64
2022-07-29T13:43:37.744Z,29.54
2022-07-29T13:46:27.750Z,29.42
2022-07-29T13:49:18.291Z,29.35
2022-07-29T13:52:08.955Z,29.28
2022-07-29T13:54:59.649Z,29.24
2022-07-29T13:57:50.412Z,29.18
2022-07-29T14:00:40.594Z,29.16
2022-07-29T14:03:31.245Z,29.13
2022-07-29T14:06:22.295Z,29.11
2022-07-29T14:09:12.431Z,29.11
2022-07-29T14:12:03.631Z,29.12
2022-07-29T14:14:54.336Z,29.16
2022-07-29T14:17:44.619Z,29.17
2022-07-29T14:20:35.166Z,29.14
2022-07-29T14:23:25.643Z,29.10
2022-07-29T14:26:21.702Z,29.06
2022-07-29T14:29:14.611Z,29.02
2022-07-29T14:32:04.723Z,28.98
2022-07-29T14:34:54.864Z,28.93
2022-07-29T14:37:44.829Z,28.89
2022-07-29T14:40:34.596Z,28.85
2022-07-29T14:43:24.903Z,28.95
2022-07-29T14:46:15.090Z,29.00
2022-07-29T14:49:06.721Z,28.97
2022-07-29T14:51:59.789Z,28.92
2022-07-29T14:54:50.377Z,28.95
2022-07-29T14:57:40.304Z,29.04
2022-07-29T15:00:33.317Z,29.22
2022-07-29T15:03:24.406Z,29.34
2022-07-29T15:06:14.969Z,29.41
2022-07-29T15:09:05.095Z,29.40
2022-07-29T15:11:55.376Z,29.44
2022-07-29T15:14:45.700Z,29.47
2022-07-29T15:17:35.492Z,29.48
2022-07-29T15:20:28.145Z,29.47
2022-07-29T15:23:17.930Z,29.47
2022-07-29T15:26:08.488Z,29.51
2022-07-29T15:28:58.472Z,29.56
2022-07-29T15:31:49.738Z,29.63
2022-07-29T15:34:40.387Z,29.73
2022-07-29T15:37:49.372Z,29.81
2022-07-29T15:40:42.277Z,29.94
2022-07-29T15:43:32.297Z,30.00
2022-07-29T15:46:40.576Z,30.07
2022-07-29T15:49:47.164Z,30.15
2022-07-29T15:52:39.192Z,30.28
2022-07-29T15:55:31.682Z,30.30
2022-07-29T15:58:21.944Z,30.31
2022-07-29T16:01:12.397Z,30.34
2022-07-29T16:04:03.086Z,30.35
2022-07-29T16:06:53.600Z,30.37
2022-07-29T16:09:46.229Z,30.36
2022-07-29T16:12:41.413Z,30.32
2022-07-29T16:15:31.842Z,30.31
2022-07-29T16:18:22.323Z,30.29
2022-07-29T16:21:20.534Z,30.28
2022-07-29T16:24:11.266Z,30.22
2022-07-29T16:27:01.853Z,30.17
2022-07-29T16:29:52.694Z,30.13
2022-07-29T16:32:43.065Z,30.11
2022-07-29T16:35:39.258Z,30.09
2022-07-29T16:38:30.506Z,30.02
2022-07-29T16:41:21.211Z,29.94
2022-07-29T16:44:12.076Z,29.88
2022-07-29T16:47:02.294Z,29.88
2022-07-29T16:49:54.278Z,29.88
2022-07-29T16:52:44.913Z,29.84
2022-07-29T16:55:35.308Z,29.77
2022-07-29T16:58:26.142Z,29.73
2022-07-29T17:01:18.299Z,29.62
2022-07-29T17:04:08.823Z,29.44
2022-07-29T17:06:59.995Z,29.42
2022-07-29T17:09:55.433Z,29.42
2022-07-29T17:12:46.758Z,29.45
2022-07-29T17:15:39.714Z,29.46
2022-07-29T17:18:30.694Z,29.44
2022-07-29T17:21:21.366Z,29.46
2022-07-29T17:24:12.684Z,29.46
2022-07-29T17:27:03.243Z,29.41
2022-07-29T17:29:53.825Z,29.37
2022-07-29T17:32:44.324Z,29.39
2022-07-29T17:35:53.055Z,29.41
2022-07-29T17:38:43.324Z,29.38
2022-07-29T17:41:34.331Z,29.37
2022-07-29T17:44:24.864Z,29.39
2022-07-29T17:47:16.163Z,29.42
2022-07-29T17:50:07.546Z,29.42
2022-07-29T17:52:58.182Z,29.44
2022-07-29T17:55:49.726Z,29.46
2022-07-29T17:58:41.261Z,29.51
2022-07-29T18:01:31.522Z,29.57
2022-07-29T18:04:23.594Z,29.69
2022-07-29T18:07:13.826Z,29.78
2022-07-29T18:10:05.733Z,29.82
2022-07-29T18:12:55.558Z,29.88
2022-07-29T18:15:46.860Z,29.91
2022-07-29T18:18:37.070Z,29.94
2022-07-29T18:21:37.601Z,29.97
2022-07-29T18:24:39.317Z,30.02
2022-07-29T18:27:30.059Z,30.07
2022-07-29T18:30:20.587Z,30.09
2022-07-29T18:33:28.285Z,30.12
2022-07-29T18:36:19.610Z,30.14
2022-07-29T18:39:10.210Z,30.14
2022-07-29T18:42:03.229Z,30.16
2022-07-29T18:44:53.670Z,30.14
2022-07-29T18:47:44.219Z,30.12
2022-07-29T18:50:38.205Z,30.11
2022-07-29T18:53:28.347Z,30.07
2022-07-29T18:56:18.354Z,30.03
2022-07-29T18:59:08.366Z,29.98
2022-07-29T19:01:59.011Z,29.93
2022-07-29T19:04:51.099Z,29.93
2022-07-29T19:07:41.830Z,29.92
2022-07-29T19:10:32.449Z,29.88
2022-07-29T19:13:23.129Z,29.82
2022-07-29T19:16:14.375Z,29.76
2022-07-29T19:19:06.139Z,29.70
2022-07-29T19:21:56.570Z,29.67
2022-07-29T19:24:47.373Z,29.67
2022-07-29T19:27:41.539Z,29.66
2022-07-29T19:30:32.754Z,29.64
2022-07-29T19:33:23.286Z,29.60
2022-07-29T19:36:14.449Z,29.56
2022-07-29T19:39:05.014Z,29.54
2022-07-29T19:41:59.207Z,29.53
2022-07-29T19:44:54.026Z,29.52
2022-07-29T19:47:46.313Z,29.48
2022-07-29T19:50:37.097Z,29.45
2022-07-29T19:53:27.657Z,29.43
2022-07-29T19:56:18.350Z,29.42
2022-07-29T19:59:10.643Z,29.41
2022-07-29T20:02:00.843Z,29.39
2022-07-29T20:04:51.334Z,29.38
2022-07-29T20:07:42.169Z,29.37
2022-07-29T20:10:35.101Z,29.38
2022-07-29T20:13:25.490Z,29.36
2022-07-29T20:16:15.974Z,29.36
2022-07-29T20:19:06.623Z,29.37
2022-07-29T20:21:56.900Z,29.36
2022-07-29T20:24:47.414Z,29.34
2022-07-29T20:27:40.474Z,29.34
2022-07-29T20:30:32.907Z,29.35
2022-07-29T20:33:23.305Z,29.35
2022-07-29T20:36:13.296Z,29.33
2022-07-29T20:39:05.593Z,29.30
2022-07-29T20:41:57.699Z,29.28
2022-07-29T20:44:49.706Z,29.25
2022-07-29T20:47:40.586Z,29.20
2022-07-29T20:50:30.325Z,29.18
2022-07-29T20:53:20.722Z,29.14
2022-07-29T20:56:12.544Z,29.10
2022-07-29T20:59:03.365Z,29.07
2022-07-29T21:01:55.847Z,29.04
2022-07-29T21:04:46.877Z,29.00
2022-07-29T21:07:37.113Z,28.94
2022-07-29T21:10:28.521Z,28.87
2022-07-29T21:13:18.948Z,28.81
2022-07-29T21:16:14.742Z,28.76
2022-07-29T21:19:05.279Z,28.71
2022-07-29T21:21:55.123Z,28.68
2022-07-29T21:24:44.686Z,28.71
2022-07-29T21:27:52.647Z,28.74
2022-07-29T21:30:42.617Z,28.73
2022-07-29T21:33:33.851Z,28.72
2022-07-29T21:39:33.786Z,28.58
2022-07-29T21:42:23.820Z,28.53
2022-07-29T21:45:15.103Z,28.49
2022-07-29T21:48:05.605Z,28.47
2022-07-29T21:50:53.027Z,28.44
2022-07-29T21:53:42.898Z,28.40
2022-07-29T21:56:34.284Z,28.36
2022-07-29T21:59:25.487Z,28.32
2022-07-29T22:02:16.805Z,28.29
2022-07-29T22:05:07.108Z,28.28
2022-07-29T22:07:57.708Z,28.27
2022-07-29T22:10:48.307Z,28.25
2022-07-29T22:13:39.566Z,28.23
2022-07-29T22:16:31.101Z,28.20
2022-07-29T22:19:21.783Z,28.17
2022-07-29T22:22:18.225Z,28.15
2022-07-29T22:25:10.165Z,28.12
2022-07-29T22:28:00.219Z,28.11
2022-07-29T22:30:50.663Z,28.09
2022-07-29T22:33:41.210Z,28.07
2022-07-29T22:36:31.503Z,28.05
2022-07-29T22:39:22.261Z,28.04
2022-07-29T22:42:14.991Z,28.04
2022-07-29T22:45:06.882Z,28.04
2022-07-29T22:47:59.211Z,28.03
2022-07-29T22:50:50.678Z,28.04
2022-07-29T22:53:41.003Z,28.05
2022-07-29T22:56:31.807Z,28.03
2022-07-29T22:59:21.984Z,28.00
2022-07-29T23:02:13.503Z,27.96
2022-07-29T23:05:03.999Z,27.93
2022-07-29T23:07:54.031Z,27.90
2022-07-29T23:10:44.211Z,27.87
2022-07-29T23:13:35.438Z,27.85
2022-07-29T23:16:26.725Z,27.83
2022-07-29T23:19:17.483Z,27.80
2022-07-29T23:22:09.208Z,27.77
2022-07-29T23:24:59.575Z,27.75
2022-07-29T23:27:52.899Z,27.73
2022-07-29T23:30:45.972Z,27.72
2022-07-29T23:33:36.501Z,27.71
2022-07-29T23:36:27.221Z,27.69
2022-07-29T23:39:18.858Z,27.68
2022-07-29T23:42:09.781Z,27.67
2022-07-29T23:45:00.155Z,27.66
2022-07-29T23:47:50.724Z,27.64
2022-07-29T23:50:41.025Z,27.63
2022-07-29T23:53:32.438Z,27.60
2022-07-29T23:56:23.713Z,27.57
2022-07-29T23:59:15.275Z,27.54
